createdAt,value
2023-03-11T00:01:34.383Z,99842.38
2023-03-11T00:05:39.058Z,99847.34
2023-03-11T00:09:40.449Z,99851.75
2023-03-11T00:13:41.796Z,99860.72
2023-03-11T00:17:43.309Z,99851.63
2023-03-11T00:21:44.636Z,99857.09
2023-03-11T00:25:46.891Z,99871.72
2023-03-11T00:29:48.223Z,99879.31
2023-03-11T00:33:49.608Z,99876.44
2023-03-11T00:37:55.101Z,99880.16
2023-03-11T00:41:56.641Z,99899.44
2023-03-11T00:45:57.986Z,99905.63
2023-03-11T00:49:59.781Z,99900.16
2023-03-11T00:54:01.343Z,99898.91
2023-03-11T00:58:05.455Z,99904.53
2023-03-11T01:02:06.765Z,99910.91
2023-03-11T01:06:08.779Z,99921.25
2023-03-11T01:10:11.156Z,99924.75
2023-03-11T01:14:12.622Z,99927.16
2023-03-11T01:18:14.201Z,99929.31
2023-03-11T01:22:16.041Z,99928.22
2023-03-11T01:26:17.428Z,99933.00
2023-03-11T01:30:21.947Z,99935.84
2023-03-11T01:34:23.265Z,99944.38
2023-03-11T01:38:24.578Z,99944.63
2023-03-11T01:42:25.878Z,99943.56
2023-03-11T01:46:31.223Z,99950.34
2023-03-11T01:50:36.905Z,99943.03
2023-03-11T01:54:40.612Z,99945.38
2023-03-11T01:58:46.251Z,99947.97
2023-03-11T02:02:52.794Z,99947.72
2023-03-11T02:06:56.153Z,99951.22
2023-03-11T02:10:57.707Z,99956.66
2023-03-11T02:15:00.456Z,99957.03
2023-03-11T02:19:26.767Z,99961.06
2023-03-11T02:23:36.536Z,99957.09
2023-03-11T02:27:42.148Z,99964.25
2023-03-11T02:31:44.210Z,99956.56
2023-03-11T02:35:45.721Z,99950.41
2023-03-11T02:39:51.080Z,99960.78
2023-03-11T02:43:52.714Z,99974.69
2023-03-11T02:47:56.425Z,99975.44
2023-03-11T02:51:57.829Z,99974.53
2023-03-11T02:55:59.264Z,99983.06
2023-03-11T03:00:06.384Z,99985.47
2023-03-11T03:04:07.809Z,99988.53
2023-03-11T03:08:09.265Z,99991.50
2023-03-11T03:12:10.659Z,99981.06
2023-03-11T03:16:12.519Z,99987.22
2023-03-11T03:20:14.751Z,99989.25
2023-03-11T03:24:16.278Z,99990.44
2023-03-11T03:28:17.661Z,99995.06
2023-03-11T03:32:19.011Z,99998.41
2023-03-11T03:36:20.373Z,100007.06
2023-03-11T03:40:21.903Z,100010.72
2023-03-11T03:44:23.228Z,100020.56
2023-03-11T03:48:24.754Z,100024.69
2023-03-11T03:52:26.113Z,100027.06
2023-03-11T03:56:27.393Z,100025.94
2023-03-11T04:00:28.735Z,100040.78
2023-03-11T04:04:30.658Z,100046.09
2023-03-11T04:08:31.989Z,100041.28
2023-03-11T04:12:33.318Z,100050.06
2023-03-11T04:16:34.764Z,100055.59
2023-03-11T04:20:38.678Z,100060.94
2023-03-11T04:24:40.026Z,100059.25
2023-03-11T04:28:41.832Z,100063.44
2023-03-11T04:32:43.436Z,100071.16
2023-03-11T04:36:44.834Z,100074.38
2023-03-11T04:40:46.217Z,100076.25
2023-03-11T04:44:47.642Z,100079.28
2023-03-11T04:48:49.087Z,100088.25
2023-03-11T04:52:50.491Z,100075.09
2023-03-11T04:56:51.852Z,100088.47
2023-03-11T05:00:53.326Z,100089.28
2023-03-11T05:04:54.759Z,100094.50
2023-03-11T05:08:56.152Z,100093.44
2023-03-11T05:12:57.427Z,100088.25
2023-03-11T05:16:58.872Z,100097.22
2023-03-11T05:21:00.237Z,100108.00
2023-03-11T05:25:01.643Z,100115.19
2023-03-11T05:29:02.958Z,100114.69
2023-03-11T05:33:04.374Z,100121.28
2023-03-11T05:37:05.938Z,100128.47
2023-03-11T05:41:07.366Z,100132.56
2023-03-11T05:45:09.921Z,100128.69
2023-03-11T05:49:11.318Z,100125.47
2023-03-11T05:53:12.737Z,100133.50
2023-03-11T05:57:14.098Z,100142.91
2023-03-11T06:01:17.567Z,100143.53
2023-03-11T06:05:19.111Z,100135.94
2023-03-11T06:09:20.536Z,100134.56
2023-03-11T06:13:21.899Z,100136.44
2023-03-11T06:17:23.314Z,100134.78
2023-03-11T06:21:26.633Z,100151.91
2023-03-11T06:25:28.011Z,100153.69
2023-03-11T06:29:29.950Z,100168.75
2023-03-11T06:33:31.251Z,100165.25
2023-03-11T06:37:36.905Z,100171.91
2023-03-11T06:41:38.190Z,100174.19
2023-03-11T06:45:39.525Z,100175.22
2023-03-11T06:49:42.576Z,100186.00
2023-03-11T06:53:47.904Z,100190.03
2023-03-11T06:57:49.312Z,100194.53
2023-03-11T07:01:50.660Z,100202.78
2023-03-11T07:05:52.128Z,100211.50
2023-03-11T07:09:55.919Z,100224.31
2023-03-11T07:13:57.289Z,100230.50
2023-03-11T07:17:58.832Z,100239.00
2023-03-11T07:22:00.346Z,100245.88
2023-03-11T07:26:02.015Z,100235.88
2023-03-11T07:30:03.653Z,100256.44
2023-03-11T07:34:11.157Z,100255.19
2023-03-11T07:38:12.577Z,100265.94
2023-03-11T07:42:13.876Z,100270.09
2023-03-11T07:46:18.450Z,100272.22
2023-03-11T07:50:22.186Z,100275.59
2023-03-11T07:54:23.620Z,100287.50
2023-03-11T07:58:25.786Z,100296.13
2023-03-11T08:02:27.304Z,100303.13
2023-03-11T08:06:31.307Z,100299.25
2023-03-11T08:10:32.730Z,100302.03
2023-03-11T08:14:34.077Z,100305.78
2023-03-11T08:18:35.450Z,100295.66
2023-03-11T08:22:38.105Z,100302.75
2023-03-11T08:26:42.814Z,100300.22
2023-03-11T08:30:44.132Z,100301.53
2023-03-11T08:34:45.596Z,100300.31
2023-03-11T08:38:47.261Z,100302.59
2023-03-11T08:42:49.245Z,100298.81
2023-03-11T08:46:50.717Z,100291.63
2023-03-11T08:50:54.633Z,100295.16
2023-03-11T08:54:57.255Z,100302.47
2023-03-11T08:58:58.711Z,100304.78
2023-03-11T09:03:00.241Z,100306.41
2023-03-11T09:07:01.629Z,100294.41
2023-03-11T09:11:03.257Z,100297.91
2023-03-11T09:15:05.789Z,100303.22
2023-03-11T09:19:07.561Z,100304.00
2023-03-11T09:23:11.120Z,100296.84
2023-03-11T09:27:13.110Z,100293.47
2023-03-11T09:31:15.781Z,100290.88
2023-03-11T09:35:17.235Z,100293.88
2023-03-11T09:39:18.760Z,100317.28
2023-03-11T09:43:39.881Z,100312.38
2023-03-11T09:48:07.832Z,100315.72
2023-03-11T09:52:15.064Z,100331.53
2023-03-11T09:56:22.230Z,100345.31
2023-03-11T10:00:24.892Z,100349.81
2023-03-11T10:04:34.113Z,100341.28
2023-03-11T10:08:44.067Z,100326.66
2023-03-11T10:13:28.631Z,100348.53
2023-03-11T10:17:39.355Z,100346.69
2023-03-11T10:21:58.327Z,100349.94
2023-03-11T10:26:21.693Z,100348.69
2023-03-11T10:30:33.729Z,100351.47
2023-03-11T10:34:50.604Z,100352.75
2023-03-11T10:38:53.882Z,100348.38
2023-03-11T10:42:58.149Z,100354.78
2023-03-11T10:46:59.685Z,100362.63
2023-03-11T10:51:16.139Z,100360.53
2023-03-11T10:55:19.908Z,100357.88
2023-03-11T10:59:32.085Z,100352.25
2023-03-11T11:03:34.688Z,100350.91
2023-03-11T11:07:41.061Z,100331.56
2023-03-11T11:12:00.344Z,100353.81
2023-03-11T11:16:05.352Z,100352.06
2023-03-11T11:20:17.972Z,100348.16
2023-03-11T11:24:27.494Z,100350.00
2023-03-11T11:28:28.999Z,100341.72
2023-03-11T11:32:30.348Z,100346.34
2023-03-11T11:36:35.729Z,100359.25
2023-03-11T11:40:37.494Z,100364.34
2023-03-11T11:44:40.161Z,100373.09
2023-03-11T11:49:10.427Z,100377.38
2023-03-11T11:53:24.970Z,100377.66
2023-03-11T11:57:26.435Z,100361.47
2023-03-11T12:01:48.886Z,100374.41
2023-03-11T12:05:58.968Z,100359.44
2023-03-11T12:10:24.306Z,100358.88
2023-03-11T12:14:34.942Z,100365.38
2023-03-11T12:18:50.172Z,100366.66
2023-03-11T12:23:28.953Z,100360.63
2023-03-11T12:27:36.082Z,100371.28
2023-03-11T12:31:40.691Z,100368.00
2023-03-11T12:35:49.747Z,100370.84
2023-03-11T12:39:51.137Z,100376.13
2023-03-11T12:43:52.393Z,100367.31
2023-03-11T12:48:27.718Z,100367.00
2023-03-11T12:52:30.032Z,100353.97
2023-03-11T12:56:54.205Z,100352.13
2023-03-11T13:01:23.191Z,100356.00
2023-03-11T13:05:33.170Z,100360.78
2023-03-11T13:09:34.902Z,100359.84
2023-03-11T13:13:40.552Z,100356.06
2023-03-11T13:17:42.000Z,100361.34
2023-03-11T13:21:43.396Z,100358.94
2023-03-11T13:26:10.773Z,100357.88
2023-03-11T13:30:22.236Z,100352.75
2023-03-11T13:34:40.412Z,100357.13
2023-03-11T13:38:57.406Z,100356.75
2023-03-11T13:43:05.483Z,100363.59
2023-03-11T13:47:18.472Z,100361.91
2023-03-11T13:51:32.228Z,100361.19
2023-03-11T13:55:43.049Z,100364.91
2023-03-11T13:59:44.353Z,100354.09
2023-03-11T14:03:47.473Z,100358.78
2023-03-11T14:07:48.877Z,100352.91
2023-03-11T14:11:53.208Z,100369.59
2023-03-11T14:16:00.389Z,100363.44
2023-03-11T14:20:06.982Z,100359.69
2023-03-11T14:24:17.073Z,100367.88
2023-03-11T14:28:20.334Z,100375.19
2023-03-11T14:32:31.244Z,100374.75
2023-03-11T14:36:44.801Z,100380.97
2023-03-11T14:40:55.312Z,100388.72
2023-03-11T14:45:17.849Z,100392.91
2023-03-11T14:49:23.079Z,100393.88
2023-03-11T14:53:30.198Z,100392.25
2023-03-11T14:57:39.564Z,100385.28
2023-03-11T15:01:43.920Z,100380.41
2023-03-11T15:06:06.925Z,100389.69
2023-03-11T15:10:11.880Z,100396.06
2023-03-11T15:14:25.068Z,100392.00
2023-03-11T15:18:39.036Z,100387.44
2023-03-11T15:22:40.964Z,100401.97
2023-03-11T15:26:52.083Z,100388.97
2023-03-11T15:31:33.548Z,100393.16
2023-03-11T15:35:46.338Z,100390.28
2023-03-11T15:39:52.066Z,100389.50
2023-03-11T15:43:54.735Z,100397.66
2023-03-11T15:47:56.066Z,100393.44
2023-03-11T15:52:01.268Z,100390.03
2023-03-11T15:56:11.282Z,100398.94
2023-03-11T16:00:22.474Z,100392.91
2023-03-11T16:04:24.005Z,100404.50
2023-03-11T16:08:25.671Z,100404.78
2023-03-11T16:12:27.015Z,100395.13
2023-03-11T16:16:28.483Z,100404.03
2023-03-11T16:20:36.694Z,100403.72
2023-03-11T16:24:38.004Z,100401.38
2023-03-11T16:28:40.243Z,100400.97
2023-03-11T16:32:42.653Z,100402.16
2023-03-11T16:36:44.091Z,100400.03
2023-03-11T16:40:45.370Z,100409.44
2023-03-11T16:44:46.703Z,100403.63
2023-03-11T16:48:48.094Z,100405.66
2023-03-11T16:52:49.937Z,100407.69
2023-03-11T16:56:51.262Z,100404.34
2023-03-11T17:00:52.626Z,100414.63
2023-03-11T17:04:54.034Z,100421.44
2023-03-11T17:08:55.410Z,100420.75
2023-03-11T17:12:56.901Z,100417.94
2023-03-11T17:16:58.829Z,100418.28
2023-03-11T17:21:02.111Z,100427.84
2023-03-11T17:25:03.971Z,100435.53
2023-03-11T17:29:05.659Z,100435.75
2023-03-11T17:33:07.027Z,100431.47
2023-03-11T17:37:08.936Z,100430.13
2023-03-11T17:41:17.243Z,100431.69
2023-03-11T17:45:18.622Z,100436.59
2023-03-11T17:49:20.032Z,100444.81
2023-03-11T17:53:21.335Z,100450.75
2023-03-11T17:57:25.021Z,100436.19
2023-03-11T18:01:27.964Z,100436.78
2023-03-11T18:05:29.321Z,100443.47
2023-03-11T18:09:30.749Z,100443.34
2023-03-11T18:13:33.361Z,100448.19
2023-03-11T18:17:35.358Z,100449.84
2023-03-11T18:21:36.825Z,100449.06
2023-03-11T18:25:38.133Z,100441.66
2023-03-11T18:29:39.573Z,100451.25
2023-03-11T18:33:42.819Z,100446.88
2023-03-11T18:37:44.133Z,100461.41
2023-03-11T18:41:45.464Z,100469.66
2023-03-11T18:45:46.847Z,100464.38
2023-03-11T18:49:48.265Z,100455.34
2023-03-11T18:53:49.580Z,100457.81
2023-03-11T18:57:53.179Z,100454.69
2023-03-11T19:01:54.970Z,100451.38
2023-03-11T19:05:56.396Z,100459.25
2023-03-11T19:09:57.876Z,100470.34
2023-03-11T19:13:59.917Z,100481.66
2023-03-11T19:18:06.985Z,100485.84
2023-03-11T19:22:08.708Z,100484.91
2023-03-11T19:26:10.124Z,100486.69
2023-03-11T19:30:12.270Z,100503.69
2023-03-11T19:34:13.648Z,100498.56
2023-03-11T19:38:14.992Z,100493.38
2023-03-11T19:42:16.345Z,100486.91
2023-03-11T19:46:20.464Z,100490.28
2023-03-11T19:50:22.564Z,100495.03
2023-03-11T19:54:24.009Z,100513.66
2023-03-11T19:58:30.231Z,100505.53
2023-03-11T20:02:32.221Z,100504.31
2023-03-11T20:06:34.031Z,100506.22
2023-03-11T20:10:40.544Z,100510.00
2023-03-11T20:14:42.855Z,100504.31
2023-03-11T20:18:44.516Z,100509.59
2023-03-11T20:22:45.876Z,100509.06
2023-03-11T20:26:48.840Z,100514.97
2023-03-11T20:30:52.061Z,100511.69
2023-03-11T20:34:53.473Z,100516.66
2023-03-11T20:38:56.128Z,100514.56
2023-03-11T20:42:57.605Z,100508.31
2023-03-11T20:46:59.240Z,100510.56
2023-03-11T20:51:13.705Z,100513.13
2023-03-11T20:55:15.209Z,100511.19
2023-03-11T20:59:16.898Z,100506.16
2023-03-11T21:03:18.467Z,100508.69
2023-03-11T21:07:19.870Z,100516.13
2023-03-11T21:11:22.138Z,100514.69
2023-03-11T21:15:23.551Z,100506.91
2023-03-11T21:19:25.008Z,100511.97
2023-03-11T21:23:26.492Z,100501.44
2023-03-11T21:27:28.044Z,100502.72
2023-03-11T21:31:30.009Z,100507.56
2023-03-11T21:35:34.335Z,100509.44
2023-03-11T21:39:35.826Z,100512.28
2023-03-11T21:43:38.953Z,100503.03
2023-03-11T21:47:40.524Z,100507.34
2023-03-11T21:51:41.868Z,100502.31
2023-03-11T21:55:43.531Z,100500.00
2023-03-11T21:59:45.004Z,100498.97
2023-03-11T22:03:47.946Z,100498.09
2023-03-11T22:07:49.564Z,100492.88
2023-03-11T22:11:51.158Z,100495.00
2023-03-11T22:15:52.827Z,100498.03
2023-03-11T22:19:54.393Z,100498.34
2023-03-11T22:23:55.785Z,100497.81
2023-03-11T22:27:57.166Z,100499.16
2023-03-11T22:31:58.602Z,100497.06
2023-03-11T22:36:02.031Z,100507.13
2023-03-11T22:40:07.493Z,100503.97
2023-03-11T22:44:08.858Z,100498.84
2023-03-11T22:48:10.229Z,100504.41
2023-03-11T22:52:11.606Z,100502.94
2023-03-11T22:56:14.985Z,100513.75
2023-03-11T23:00:20.822Z,100510.28
2023-03-11T23:04:22.276Z,100502.63
2023-03-11T23:08:23.761Z,100501.69
2023-03-11T23:12:25.233Z,100505.84
2023-03-11T23:16:26.648Z,100503.97
2023-03-11T23:20:28.245Z,100504.63
2023-03-11T23:24:29.716Z,100500.22
2023-03-11T23:28:31.150Z,100495.81
2023-03-11T23:32:32.799Z,100494.03
2023-03-11T23:36:34.373Z,100488.88
2023-03-11T23:40:35.750Z,100485.56
2023-03-11T23:44:37.129Z,100481.91
2023-03-11T23:48:38.802Z,100489.03
2023-03-11T23:52:40.143Z,100482.66
2023-03-11T23:56:43.544Z,100484.59
